Time;durP1;ratioP1;P1;durP2;ratioP2;P2;SDS_P1;SDS_P2;PMS_P1;PMS_P2;Temp;Humidity;BMP_temperature;BMP_pressure;BME280_temperature;BME280_humidity;BME280_pressure;Samples;Min_cycle;Max_cycle;Signal;HPM_P1;HPM_P2
2023/10/25 00:02:01;;;;;;;0.00;0.00;;;;;;;;;;5051948;28;20458;-80
2023/10/25 00:04:26;;;;;;;0.00;0.00;;;;;;;;;;5038210;28;20036;-80
2023/10/25 00:06:51;;;;;;;0.00;0.00;;;;;;;;;;5056829;28;20033;-80
2023/10/25 00:09:17;;;;;;;0.00;0.00;;;;;;;;;;5039759;28;20081;-80
2023/10/25 00:11:42;;;;;;;0.00;0.00;;;;;;;;;;5057765;28;20056;-80
2023/10/25 00:14:08;;;;;;;0.00;0.00;;;;;;;;;;5057933;28;20086;-80
2023/10/25 00:16:34;;;;;;;0.00;0.00;;;;;;;;;;5060535;28;20045;-80
2023/10/25 00:19:00;;;;;;;0.10;0.00;;;;;;;;;;5058922;28;20033;-81
2023/10/25 00:21:25;;;;;;;0.00;0.00;;;;;;;;;;5039417;28;20031;-81
2023/10/25 00:23:51;;;;;;;0.00;0.00;;;;;;;;;;5057804;28;20029;-79
2023/10/25 00:26:16;;;;;;;0.00;0.00;;;;;;;;;;5057529;28;20043;-79
2023/10/25 00:28:41;;;;;;;0.00;0.00;;;;;;;;;;5039518;28;20056;-81
2023/10/25 00:31:07;;;;;;;0.00;0.00;;;;;;;;;;5057150;28;20442;-81
2023/10/25 00:33:32;;;;;;;0.00;0.00;;;;;;;;;;5057711;28;20036;-81
2023/10/25 00:35:58;;;;;;;0.00;0.00;;;;;;;;;;5057800;28;20275;-81
2023/10/25 00:38:24;;;;;;;0.00;0.00;;;;;;;;;;5057545;28;20074;-81
2023/10/25 00:40:49;;;;;;;0.00;0.00;;;;;;;;;;5057310;28;20029;-81
2023/10/25 00:43:16;;;;;;;0.00;0.00;;;;;;;;;;5023167;28;20413;-80
2023/10/25 00:46:13;;;;;;;0.00;0.00;;;;;;;;;;5039018;28;20033;-80
2023/10/25 00:48:48;;;;;;;0.00;0.00;;;;;;;;;;5023420;28;20025;-82
2023/10/25 00:51:15;;;;;;;0.00;0.00;;;;;;;;;;5056058;28;20029;-80
2023/10/25 00:53:42;;;;;;;0.00;0.00;;;;;;;;;;5022665;28;20422;-80
2023/10/25 00:56:09;;;;;;;0.00;0.00;;;;;;;;;;5022730;28;20433;-81
2023/10/25 00:58:34;;;;;;;0.00;0.00;;;;;;;;;;5041788;28;20098;-81
2023/10/25 01:01:00;;;;;;;0.00;0.00;;;;;;;;;;5039292;28;20029;-81
2023/10/25 01:03:25;;;;;;;0.00;0.00;;;;;;;;;;5037510;28;20029;-81
2023/10/25 01:05:51;;;;;;;0.00;0.00;;;;;;;;;;5056278;28;20139;-82
2023/10/25 01:08:20;;;;;;;0.00;0.00;;;;;;;;;;5038719;28;20044;-80
2023/10/25 01:10:54;;;;;;;0.00;0.00;;;;;;;;;;5055367;28;20486;-81
2023/10/25 01:13:20;;;;;;;0.00;0.00;;;;;;;;;;5038477;28;20443;-81
2023/10/25 01:15:45;;;;;;;0.00;0.00;;;;;;;;;;5054947;28;20029;-81
2023/10/25 01:18:11;;;;;;;0.00;0.00;;;;;;;;;;5057351;28;20032;-80
2023/10/25 01:20:36;;;;;;;0.00;0.00;;;;;;;;;;5039100;28;20131;-80
2023/10/25 01:23:02;;;;;;;0.00;0.00;;;;;;;;;;5056583;28;20114;-80
2023/10/25 01:25:27;;;;;;;0.00;0.00;;;;;;;;;;5056067;28;20055;-80
2023/10/25 01:27:53;;;;;;;0.00;0.00;;;;;;;;;;5022230;28;20450;-81
2023/10/25 01:30:18;;;;;;;0.00;0.00;;;;;;;;;;5056305;28;20021;-80
2023/10/25 01:32:44;;;;;;;0.00;0.00;;;;;;;;;;5056068;28;20432;-82
2023/10/25 01:35:10;;;;;;;0.00;0.00;;;;;;;;;;5056555;28;20056;-80
2023/10/25 01:37:36;;;;;;;0.00;0.00;;;;;;;;;;5038801;28;20120;-80
2023/10/25 01:40:03;;;;;;;0.00;0.00;;;;;;;;;;5039134;28;20465;-80
2023/10/25 01:42:28;;;;;;;0.00;0.00;;;;;;;;;;5038823;28;20114;-80
2023/10/25 01:44:54;;;;;;;0.00;0.00;;;;;;;;;;5038232;28;20033;-82
2023/10/25 01:47:19;;;;;;;0.00;0.00;;;;;;;;;;5056549;28;20431;-80
2023/10/25 01:49:45;;;;;;;0.00;0.00;;;;;;;;;;5056354;28;20051;-81
2023/10/25 01:52:10;;;;;;;0.00;0.00;;;;;;;;;;5037631;28;20032;-81
2023/10/25 01:54:35;;;;;;;0.00;0.00;;;;;;;;;;5038437;28;20025;-80
2023/10/25 01:57:01;;;;;;;0.00;0.00;;;;;;;;;;5039427;28;20021;-80
2023/10/25 01:59:26;;;;;;;0.00;0.00;;;;;;;;;;5072317;28;20036;-81
2023/10/25 02:01:52;;;;;;;0.00;0.00;;;;;;;;;;5039062;28;20044;-80
2023/10/25 02:04:17;;;;;;;0.00;0.00;;;;;;;;;;5022001;28;20037;-80
2023/10/25 02:06:43;;;;;;;0.00;0.00;;;;;;;;;;5052400;28;20116;-79
2023/10/25 02:09:08;;;;;;;0.00;0.00;;;;;;;;;;5037971;28;20029;-81
2023/10/25 02:11:34;;;;;;;0.00;0.00;;;;;;;;;;5055437;28;20459;-81
2023/10/25 02:13:59;;;;;;;0.00;0.00;;;;;;;;;;5055694;28;20029;-81
2023/10/25 02:16:26;;;;;;;0.00;0.00;;;;;;;;;;5055953;28;20029;-82
2023/10/25 02:18:51;;;;;;;0.00;0.00;;;;;;;;;;5038466;28;20052;-80
2023/10/25 02:21:17;;;;;;;0.00;0.00;;;;;;;;;;5038434;28;20063;-80
2023/10/25 02:23:42;;;;;;;0.00;0.00;;;;;;;;;;5056939;28;20168;-81
2023/10/25 02:26:08;;;;;;;0.00;0.00;;;;;;;;;;5038666;28;20037;-80
2023/10/25 02:28:33;;;;;;;0.00;0.00;;;;;;;;;;5056064;28;20402;-80
2023/10/25 02:30:59;;;;;;;0.00;0.00;;;;;;;;;;5058461;28;20036;-82
2023/10/25 02:33:24;;;;;;;0.00;0.00;;;;;;;;;;5021594;28;20466;-81
2023/10/25 02:35:51;;;;;;;0.00;0.00;;;;;;;;;;5037624;28;20029;-80
2023/10/25 02:38:17;;;;;;;0.00;0.00;;;;;;;;;;5037308;28;20025;-80
2023/10/25 02:40:42;;;;;;;0.00;0.00;;;;;;;;;;5053974;28;20366;-80
2023/10/25 02:43:08;;;;;;;0.00;0.00;;;;;;;;;;5037194;28;20399;-80
2023/10/25 02:45:33;;;;;;;0.00;0.00;;;;;;;;;;5055048;28;20374;-80
2023/10/25 02:47:59;;;;;;;0.00;0.00;;;;;;;;;;5055406;28;20033;-81
2023/10/25 02:50:24;;;;;;;0.00;0.00;;;;;;;;;;5053914;28;20029;-80
2023/10/25 02:52:49;;;;;;;0.00;0.00;;;;;;;;;;5037415;28;20503;-81
2023/10/25 02:55:15;;;;;;;0.00;0.00;;;;;;;;;;5037231;28;20097;-80
2023/10/25 02:57:41;;;;;;;0.00;0.00;;;;;;;;;;5037488;28;20033;-80
2023/10/25 03:00:08;;;;;;;0.00;0.00;;;;;;;;;;5037536;28;20459;-80
2023/10/25 03:02:33;;;;;;;0.00;0.00;;;;;;;;;;5053504;28;20029;-80
2023/10/25 03:04:58;;;;;;;0.00;0.00;;;;;;;;;;5054319;28;20037;-81
2023/10/25 03:07:24;;;;;;;0.00;0.00;;;;;;;;;;5039666;28;20453;-82
2023/10/25 03:09:49;;;;;;;0.00;0.00;;;;;;;;;;5074609;28;20036;-80
2023/10/25 03:12:15;;;;;;;0.00;0.00;;;;;;;;;;5074294;28;20466;-80
2023/10/25 03:14:40;;;;;;;0.00;0.00;;;;;;;;;;5075364;28;20519;-80
2023/10/25 03:17:06;;;;;;;0.00;0.00;;;;;;;;;;5075025;28;20522;-80
2023/10/25 03:19:31;;;;;;;0.00;0.00;;;;;;;;;;5074846;28;20028;-79
2023/10/25 03:22:02;;;;;;;0.00;0.00;;;;;;;;;;5074681;28;20035;-79
2023/10/25 03:24:28;;;;;;;0.00;0.00;;;;;;;;;;5074892;28;20032;-80
2023/10/25 03:26:54;;;;;;;0.00;0.00;;;;;;;;;;5074477;28;20039;-80
2023/10/25 03:29:19;;;;;;;0.00;0.00;;;;;;;;;;5074521;28;20033;-80
2023/10/25 03:31:45;;;;;;;0.00;0.00;;;;;;;;;;5074520;28;20031;-80
2023/10/25 03:34:10;;;;;;;0.00;0.00;;;;;;;;;;5056758;28;20087;-80
2023/10/25 03:36:36;;;;;;;0.00;0.00;;;;;;;;;;5056924;28;20090;-80
2023/10/25 03:39:01;;;;;;;0.00;0.00;;;;;;;;;;5073470;28;20414;-80
2023/10/25 03:41:27;;;;;;;0.00;0.00;;;;;;;;;;5074537;28;20480;-80
2023/10/25 03:43:52;;;;;;;0.00;0.00;;;;;;;;;;5056532;28;20442;-80
2023/10/25 03:46:18;;;;;;;0.00;0.00;;;;;;;;;;5056345;28;20038;-79
2023/10/25 03:48:43;;;;;;;0.00;0.00;;;;;;;;;;5056477;28;20043;-81
2023/10/25 03:51:10;;;;;;;0.00;0.00;;;;;;;;;;5039811;28;20033;-80
2023/10/25 03:53:36;;;;;;;0.00;0.00;;;;;;;;;;5023812;28;20038;-81
2023/10/25 03:56:02;;;;;;;0.00;0.00;;;;;;;;;;5039669;28;20036;-80
2023/10/25 03:58:28;;;;;;;0.00;0.00;;;;;;;;;;5039762;28;20031;-81
2023/10/25 04:01:00;;;;;;;0.00;0.00;;;;;;;;;;5039866;28;20036;-81
2023/10/25 04:03:26;;;;;;;0.00;0.00;;;;;;;;;;5039988;28;20029;-81
2023/10/25 04:05:52;;;;;;;0.00;0.00;;;;;;;;;;5040005;28;20041;-81
2023/10/25 04:08:17;;;;;;;0.00;0.00;;;;;;;;;;5056852;28;20040;-80
2023/10/25 04:10:50;;;;;;;0.00;0.00;;;;;;;;;;5054145;28;20049;-81
2023/10/25 04:13:16;;;;;;;0.00;0.00;;;;;;;;;;5035795;28;20466;-81
2023/10/25 04:15:42;;;;;;;0.00;0.00;;;;;;;;;;5052788;28;20025;-81
2023/10/25 04:18:10;;;;;;;0.00;0.00;;;;;;;;;;5054281;28;20033;-80
2023/10/25 04:20:35;;;;;;;0.00;0.00;;;;;;;;;;5035513;28;20067;-81
2023/10/25 04:23:01;;;;;;;0.00;0.00;;;;;;;;;;5053889;28;20037;-80
2023/10/25 04:25:29;;;;;;;0.00;0.00;;;;;;;;;;5053574;28;20107;-80
2023/10/25 04:27:56;;;;;;;0.00;0.00;;;;;;;;;;5020236;28;20459;-80
2023/10/25 04:30:21;;;;;;;0.00;0.00;;;;;;;;;;5036661;28;20029;-80
2023/10/25 04:32:47;;;;;;;0.00;0.00;;;;;;;;;;5053669;28;20120;-80
2023/10/25 04:35:12;;;;;;;0.00;0.00;;;;;;;;;;5053412;28;20035;-78
2023/10/25 04:37:38;;;;;;;0.00;0.00;;;;;;;;;;5053455;28;20938;-78
2023/10/25 04:40:04;;;;;;;0.00;0.00;;;;;;;;;;5063651;28;20503;-78
2023/10/25 04:42:29;;;;;;;0.00;0.00;;;;;;;;;;5072550;28;20033;-79
2023/10/25 04:44:55;;;;;;;0.00;0.00;;;;;;;;;;5054151;28;20469;-81
2023/10/25 04:47:20;;;;;;;0.00;0.00;;;;;;;;;;5049391;28;20378;-79
2023/10/25 04:49:46;;;;;;;0.00;0.00;;;;;;;;;;5030965;28;20037;-79
2023/10/25 04:52:12;;;;;;;0.08;0.00;;;;;;;;;;5068558;28;20135;-77
2023/10/25 04:54:38;;;;;;;0.00;0.00;;;;;;;;;;5064822;28;20526;-76
2023/10/25 04:57:12;;;;;;;0.00;0.00;;;;;;;;;;5066236;28;20033;-79
2023/10/25 04:59:43;;;;;;;0.00;0.00;;;;;;;;;;5072056;28;20036;-79
2023/10/25 05:02:09;;;;;;;0.00;0.00;;;;;;;;;;5050715;28;20041;-79
2023/10/25 05:04:35;;;;;;;0.00;0.00;;;;;;;;;;5039007;28;20123;-76
2023/10/25 05:07:01;;;;;;;0.00;0.00;;;;;;;;;;5063763;28;20032;-76
2023/10/25 05:09:42;;;;;;;0.00;0.00;;;;;;;;;;5065337;28;20039;-76
2023/10/25 05:12:08;;;;;;;0.00;0.00;;;;;;;;;;5060755;28;20048;-75
2023/10/25 05:14:35;;;;;;;0.00;0.00;;;;;;;;;;5046375;28;20037;-78
2023/10/25 05:17:05;;;;;;;0.00;0.00;;;;;;;;;;5070897;28;20097;-76
2023/10/25 05:19:31;;;;;;;0.00;0.00;;;;;;;;;;5053623;28;20124;-77
2023/10/25 05:21:59;;;;;;;0.00;0.00;;;;;;;;;;5067549;28;20123;-77
2023/10/25 05:24:34;;;;;;;0.00;0.00;;;;;;;;;;5064080;28;20132;-76
2023/10/25 05:27:00;;;;;;;0.00;0.00;;;;;;;;;;5053925;28;20020;-79
2023/10/25 05:29:26;;;;;;;0.00;0.00;;;;;;;;;;5065591;28;20032;-79
2023/10/25 05:31:52;;;;;;;0.00;0.00;;;;;;;;;;5061997;28;20041;-77
2023/10/25 05:34:17;;;;;;;0.00;0.00;;;;;;;;;;5048559;28;20029;-79
2023/10/25 05:36:43;;;;;;;0.00;0.00;;;;;;;;;;5065896;28;20021;-76
2023/10/25 05:39:10;;;;;;;0.00;0.00;;;;;;;;;;5054542;28;20123;-79
2023/10/25 05:41:41;;;;;;;0.00;0.00;;;;;;;;;;5045127;28;20048;-76
2023/10/25 05:44:27;;;;;;;0.00;0.00;;;;;;;;;;5036115;28;20047;-77
2023/10/25 05:57:55;;;;;;;0.40;0.10;;;;;;;;;;5728382;22;20060;-78
2023/10/25 06:00:27;;;;;;;0.20;0.00;;;;;;;;;;5050108;28;20032;-79
2023/10/25 06:02:53;;;;;;;0.00;0.00;;;;;;;;;;5045970;28;20047;-78
2023/10/25 06:05:18;;;;;;;0.00;0.00;;;;;;;;;;5033895;28;20688;-77
2023/10/25 06:07:46;;;;;;;0.00;0.00;;;;;;;;;;5054960;28;20490;-78
2023/10/25 06:10:13;;;;;;;0.00;0.00;;;;;;;;;;5018913;28;20033;-77
2023/10/25 06:12:40;;;;;;;0.00;0.00;;;;;;;;;;5062648;28;20087;-76
2023/10/25 06:15:06;;;;;;;0.00;0.00;;;;;;;;;;5032931;28;20024;-78
2023/10/25 06:17:32;;;;;;;0.00;0.00;;;;;;;;;;5064644;28;20181;-78
2023/10/25 06:19:58;;;;;;;0.00;0.00;;;;;;;;;;5042623;28;20108;-78
2023/10/25 06:22:23;;;;;;;0.00;0.00;;;;;;;;;;5041570;28;20387;-77
2023/10/25 06:24:48;;;;;;;0.00;0.00;;;;;;;;;;5037621;28;20423;-79
2023/10/25 06:27:14;;;;;;;0.03;0.00;;;;;;;;;;5043115;28;20046;-77
2023/10/25 06:29:39;;;;;;;0.00;0.00;;;;;;;;;;5052884;28;20512;-77
2023/10/25 06:32:05;;;;;;;0.00;0.00;;;;;;;;;;5042654;28;20045;-79
2023/10/25 06:34:31;;;;;;;0.00;0.00;;;;;;;;;;5048248;28;20039;-76
2023/10/25 06:36:56;;;;;;;0.00;0.00;;;;;;;;;;5067405;28;20040;-78
2023/10/25 06:39:31;;;;;;;0.00;0.00;;;;;;;;;;5069719;28;20028;-79
2023/10/25 06:42:03;;;;;;;0.00;0.00;;;;;;;;;;5051834;28;20453;-78
2023/10/25 06:44:32;;;;;;;0.00;0.00;;;;;;;;;;5049566;28;20036;-79
2023/10/25 06:46:58;;;;;;;0.00;0.00;;;;;;;;;;5060165;28;20083;-80
2023/10/25 06:49:26;;;;;;;0.00;0.00;;;;;;;;;;5052999;28;20059;-81
2023/10/25 06:51:53;;;;;;;0.00;0.00;;;;;;;;;;5066349;28;20284;-78
2023/10/25 06:54:18;;;;;;;0.00;0.00;;;;;;;;;;5040478;28;20060;-80
2023/10/25 06:56:47;;;;;;;0.00;0.00;;;;;;;;;;5050429;28;20109;-78
2023/10/25 07:11:31;;;;;;;0.00;0.00;;;;;;;;;;5106204;22;20417;-77
2023/10/25 07:13:56;;;;;;;0.03;0.00;;;;;;;;;;5058792;28;20530;-77
2023/10/25 07:16:27;;;;;;;0.00;0.00;;;;;;;;;;5045693;28;20060;-79
2023/10/25 07:18:53;;;;;;;0.00;0.00;;;;;;;;;;5032641;28;20029;-76
2023/10/25 07:21:19;;;;;;;0.00;0.00;;;;;;;;;;5040426;28;20079;-75
2023/10/25 07:23:45;;;;;;;0.00;0.00;;;;;;;;;;5046464;28;20530;-76
2023/10/25 07:26:10;;;;;;;0.00;0.00;;;;;;;;;;5051065;28;20036;-76
2023/10/25 07:28:37;;;;;;;0.00;0.00;;;;;;;;;;5051730;28;20029;-76
2023/10/25 07:31:31;;;;;;;;;;;;;;;;;;;;;
2023/10/25 07:33:57;;;;;;;0.00;0.00;;;;;;;;;;5041181;28;20429;-77
2023/10/25 07:36:24;;;;;;;0.20;0.00;;;;;;;;;;5047330;28;20123;-79
2023/10/25 07:38:49;;;;;;;0.00;0.00;;;;;;;;;;5033445;28;20079;-78
2023/10/25 07:41:15;;;;;;;0.00;0.00;;;;;;;;;;5046836;28;20021;-80
2023/10/25 07:43:41;;;;;;;0.00;0.00;;;;;;;;;;5052267;28;20047;-81
2023/10/25 07:46:08;;;;;;;0.00;0.00;;;;;;;;;;5033219;28;20083;-79
2023/10/25 07:48:33;;;;;;;0.00;0.00;;;;;;;;;;5050727;28;20045;-79
2023/10/25 07:51:04;;;;;;;0.00;0.00;;;;;;;;;;5032795;28;20033;-80
2023/10/25 07:53:32;;;;;;;0.00;0.00;;;;;;;;;;5031475;28;20177;-78
2023/10/25 07:56:02;;;;;;;0.00;0.00;;;;;;;;;;5015221;28;20069;-80
2023/10/25 07:58:27;;;;;;;;;;;;;;;;;;5054204;28;20033;-79
2023/10/25 08:00:53;;;;;;;0.00;0.00;;;;;;;;;;5018150;28;19935;-80
2023/10/25 08:03:29;;;;;;;0.00;0.00;;;;;;;;;;5049806;28;20044;-80
2023/10/25 08:05:55;;;;;;;0.00;0.00;;;;;;;;;;5016743;28;20059;-80
2023/10/25 08:15:24;;;;;;;0.03;0.00;;;;;;;;;;5064735;22;20148;-77
2023/10/25 08:17:55;;;;;;;0.00;0.00;;;;;;;;;;5047015;28;20112;-79
2023/10/25 08:38:08;;;;;;;0.00;0.00;;;;;;;;;;5484014;22;20132;-77
2023/10/25 08:40:33;;;;;;;0.00;0.00;;;;;;;;;;4997575;28;20029;-78
2023/10/25 08:43:00;;;;;;;0.00;0.00;;;;;;;;;;4982873;28;20511;-79
2023/10/25 08:45:36;;;;;;;0.00;0.00;;;;;;;;;;4981923;28;20040;-81
2023/10/25 08:48:04;;;;;;;0.00;0.00;;;;;;;;;;4980027;28;20033;-79
2023/10/25 08:50:33;;;;;;;0.00;0.00;;;;;;;;;;4995964;28;20124;-79
2023/10/25 08:52:59;;;;;;;0.00;0.00;;;;;;;;;;4979079;28;20042;-79
2023/10/25 08:55:27;;;;;;;0.00;0.00;;;;;;;;;;5008832;28;20053;-81
2023/10/25 08:57:56;;;;;;;0.00;0.00;;;;;;;;;;5010141;28;20033;-79
2023/10/25 09:00:30;;;;;;;0.00;0.00;;;;;;;;;;5003825;28;20082;-79
2023/10/25 09:03:40;;;;;;;0.00;0.00;;;;;;;;;;4992462;28;20183;-79
2023/10/25 09:06:10;;;;;;;0.00;0.00;;;;;;;;;;5008926;28;20073;-78
2023/10/25 09:08:48;;;;;;;0.00;0.00;;;;;;;;;;4991060;28;20121;-77
2023/10/25 09:11:13;;;;;;;0.00;0.00;;;;;;;;;;4979124;28;20072;-76
2023/10/25 09:13:50;;;;;;;0.00;0.00;;;;;;;;;;4994194;28;20057;-78
2023/10/25 10:23:05;;;;;;;0.00;0.00;;;;;;;;;;5834826;23;20077;-77
2023/10/25 10:25:47;;;;;;;0.00;0.00;;;;;;;;;;5025333;28;20060;-76
2023/10/25 10:28:14;;;;;;;0.00;0.00;;;;;;;;;;5032866;28;20030;-77
2023/10/25 10:39:57;;;;;;;0.00;0.00;;;;;;;;;;5001938;22;20054;-82
2023/10/25 10:42:28;;;;;;;0.00;0.00;;;;;;;;;;4993574;28;20284;-82
2023/10/25 10:44:58;;;;;;;0.00;0.00;;;;;;;;;;5010103;28;20040;-83
2023/10/25 10:48:02;;;;;;;0.00;0.00;;;;;;;;;;4994142;28;20064;-82
2023/10/25 10:50:28;;;;;;;0.00;0.00;;;;;;;;;;4991109;28;20037;-82
2023/10/25 10:52:53;;;;;;;0.00;0.00;;;;;;;;;;4996111;28;20155;-81
2023/10/25 10:55:24;;;;;;;0.00;0.00;;;;;;;;;;5012382;28;20068;-81
2023/10/25 10:57:49;;;;;;;0.00;0.00;;;;;;;;;;5013807;28;20363;-80
2023/10/25 11:00:16;;;;;;;0.00;0.00;;;;;;;;;;4994273;28;20692;-81
2023/10/25 11:02:46;;;;;;;0.00;0.00;;;;;;;;;;4996118;28;20121;-81
2023/10/25 11:05:14;;;;;;;0.00;0.00;;;;;;;;;;4996076;28;20029;-81
2023/10/25 11:07:40;;;;;;;0.00;0.00;;;;;;;;;;4983721;28;20038;-81
2023/10/25 11:10:06;;;;;;;0.00;0.00;;;;;;;;;;4997592;28;20088;-80
2023/10/25 11:12:34;;;;;;;0.00;0.00;;;;;;;;;;4977455;28;20084;-81
2023/10/25 11:15:06;;;;;;;0.00;0.00;;;;;;;;;;4977206;28;20078;-81
2023/10/25 11:17:32;;;;;;;0.00;0.00;;;;;;;;;;4974379;28;20080;-79
2023/10/25 11:19:59;;;;;;;0.00;0.00;;;;;;;;;;4975179;28;20040;-80
2023/10/25 11:22:30;;;;;;;0.10;0.00;;;;;;;;;;5014319;28;20022;-81
2023/10/25 11:24:57;;;;;;;0.00;0.00;;;;;;;;;;4997464;28;20477;-81
2023/10/25 11:27:28;;;;;;;0.00;0.00;;;;;;;;;;4980966;28;20124;-79
2023/10/25 11:29:55;;;;;;;0.00;0.00;;;;;;;;;;4981248;28;20076;-82
2023/10/25 11:32:21;;;;;;;0.00;0.00;;;;;;;;;;5007024;28;20128;-77
2023/10/25 11:34:56;;;;;;;0.00;0.00;;;;;;;;;;4974394;28;20089;-80
2023/10/25 11:37:21;;;;;;;0.00;0.00;;;;;;;;;;4949041;28;20046;-79
2023/10/25 11:40:01;;;;;;;0.00;0.00;;;;;;;;;;4953505;28;20457;-80
2023/10/25 11:42:31;;;;;;;0.00;0.00;;;;;;;;;;4939900;28;20469;-81
2023/10/25 11:44:58;;;;;;;0.00;0.00;;;;;;;;;;4939252;28;20043;-80
2023/10/25 11:47:23;;;;;;;0.00;0.00;;;;;;;;;;4954821;28;20038;-81
2023/10/25 11:49:56;;;;;;;0.00;0.00;;;;;;;;;;4977834;28;20084;-81
2023/10/25 11:52:28;;;;;;;0.00;0.00;;;;;;;;;;4973877;28;20495;-80
2023/10/25 11:54:56;;;;;;;0.00;0.00;;;;;;;;;;4973540;28;20038;-80
2023/10/25 11:57:24;;;;;;;0.00;0.00;;;;;;;;;;4991805;28;20460;-81
2023/10/25 11:59:50;;;;;;;0.00;0.00;;;;;;;;;;4992833;28;20149;-82
2023/10/25 12:02:18;;;;;;;0.00;0.00;;;;;;;;;;4979054;28;20027;-79
2023/10/25 12:04:44;;;;;;;0.00;0.00;;;;;;;;;;4978576;28;20372;-80
2023/10/25 12:07:10;;;;;;;0.00;0.00;;;;;;;;;;4978932;28;20061;-81
2023/10/25 12:09:38;;;;;;;0.00;0.00;;;;;;;;;;4997234;28;20393;-81
2023/10/25 12:12:04;;;;;;;0.00;0.00;;;;;;;;;;4979685;28;20074;-80
2023/10/25 12:14:30;;;;;;;0.00;0.00;;;;;;;;;;4981013;28;20049;-81
2023/10/25 12:16:55;;;;;;;0.00;0.00;;;;;;;;;;4998725;28;20365;-80
2023/10/25 12:19:21;;;;;;;0.00;0.00;;;;;;;;;;4997996;28;20026;-80
2023/10/25 12:21:46;;;;;;;0.00;0.00;;;;;;;;;;4979704;28;20034;-80
2023/10/25 12:24:11;;;;;;;0.00;0.00;;;;;;;;;;4996742;28;20089;-80
2023/10/25 12:26:37;;;;;;;0.00;0.00;;;;;;;;;;4965104;28;20041;-81
2023/10/25 12:29:02;;;;;;;0.00;0.00;;;;;;;;;;4998106;28;20044;-80
2023/10/25 12:31:28;;;;;;;0.00;0.00;;;;;;;;;;4998268;28;20044;-79
2023/10/25 12:33:53;;;;;;;0.00;0.00;;;;;;;;;;4996177;28;20030;-78
2023/10/25 12:36:19;;;;;;;0.00;0.00;;;;;;;;;;4997466;28;20401;-81
2023/10/25 12:38:45;;;;;;;0.00;0.00;;;;;;;;;;4997277;28;20089;-80
2023/10/25 12:41:10;;;;;;;0.00;0.00;;;;;;;;;;4997329;28;20089;-81
2023/10/25 12:43:36;;;;;;;0.00;0.00;;;;;;;;;;4997758;28;20050;-81
2023/10/25 12:46:01;;;;;;;0.00;0.00;;;;;;;;;;4997894;28;20103;-80
2023/10/25 12:48:27;;;;;;;0.00;0.00;;;;;;;;;;4996616;28;20034;-79
2023/10/25 12:50:52;;;;;;;0.00;0.00;;;;;;;;;;4996562;28;20034;-78
2023/10/25 12:53:17;;;;;;;0.00;0.00;;;;;;;;;;4980359;28;20129;-80
2023/10/25 12:55:43;;;;;;;0.00;0.00;;;;;;;;;;4998416;28;20030;-79
2023/10/25 12:58:08;;;;;;;0.00;0.00;;;;;;;;;;5000146;28;20030;-80
2023/10/25 13:00:34;;;;;;;0.00;0.00;;;;;;;;;;4984049;28;20040;-80
2023/10/25 13:02:59;;;;;;;0.00;0.00;;;;;;;;;;4988691;28;20030;-81
2023/10/25 13:05:25;;;;;;;0.00;0.00;;;;;;;;;;5002865;28;20030;-81
2023/10/25 13:07:51;;;;;;;0.00;0.00;;;;;;;;;;5013063;28;20026;-80
2023/10/25 13:10:17;;;;;;;0.00;0.00;;;;;;;;;;5018450;28;20089;-78
2023/10/25 13:12:45;;;;;;;0.00;0.00;;;;;;;;;;5018216;28;20041;-82
2023/10/25 13:15:11;;;;;;;0.00;0.00;;;;;;;;;;5018024;28;20038;-81
2023/10/25 13:17:36;;;;;;;0.00;0.00;;;;;;;;;;5016109;28;20038;-78
2023/10/25 13:20:02;;;;;;;0.00;0.00;;;;;;;;;;5029521;28;20049;-80
2023/10/25 13:22:29;;;;;;;0.00;0.00;;;;;;;;;;5016822;28;20044;-79
2023/10/25 13:24:54;;;;;;;0.00;0.00;;;;;;;;;;5012122;28;20026;-80
2023/10/25 13:27:20;;;;;;;0.00;0.00;;;;;;;;;;5010828;28;20094;-80
2023/10/25 13:29:45;;;;;;;0.00;0.00;;;;;;;;;;4996489;28;20034;-80
2023/10/25 13:32:10;;;;;;;0.00;0.00;;;;;;;;;;4997081;28;20427;-79
2023/10/25 13:34:36;;;;;;;0.00;0.00;;;;;;;;;;4979864;28;20412;-79
2023/10/25 13:37:01;;;;;;;0.00;0.00;;;;;;;;;;4997122;28;20063;-80
2023/10/25 13:39:27;;;;;;;0.00;0.00;;;;;;;;;;4973752;28;20046;-79
2023/10/25 13:41:52;;;;;;;0.00;0.00;;;;;;;;;;4991410;28;20030;-79
2023/10/25 13:44:19;;;;;;;0.00;0.00;;;;;;;;;;4982294;28;20080;-80
2023/10/25 13:46:44;;;;;;;0.00;0.00;;;;;;;;;;4998917;28;20052;-80
2023/10/25 13:49:10;;;;;;;0.00;0.00;;;;;;;;;;5015692;28;20472;-82
2023/10/25 13:51:36;;;;;;;0.00;0.00;;;;;;;;;;4998420;28;20028;-81
2023/10/25 13:54:02;;;;;;;0.00;0.00;;;;;;;;;;5016001;28;20117;-82
2023/10/25 13:56:27;;;;;;;0.00;0.00;;;;;;;;;;5015907;28;20603;-81
2023/10/25 13:58:53;;;;;;;0.00;0.00;;;;;;;;;;5016561;28;20128;-81
2023/10/25 14:01:18;;;;;;;0.00;0.00;;;;;;;;;;5015791;28;20036;-81
2023/10/25 14:03:43;;;;;;;0.00;0.00;;;;;;;;;;5015157;28;20507;-81
2023/10/25 14:06:14;;;;;;;0.00;0.00;;;;;;;;;;4981898;28;20034;-80
2023/10/25 14:08:39;;;;;;;0.00;0.00;;;;;;;;;;4998299;28;20038;-79
2023/10/25 14:11:06;;;;;;;0.00;0.00;;;;;;;;;;5015541;28;20029;-80
2023/10/25 14:13:31;;;;;;;0.03;0.00;;;;;;;;;;4966266;28;20022;-79
2023/10/25 14:15:57;;;;;;;0.00;0.00;;;;;;;;;;5015477;28;20164;-79
2023/10/25 14:18:22;;;;;;;0.00;0.00;;;;;;;;;;5013734;28;20065;-80
2023/10/25 14:20:48;;;;;;;0.00;0.00;;;;;;;;;;4996204;28;20034;-80
2023/10/25 14:23:13;;;;;;;0.00;0.00;;;;;;;;;;4994256;28;20030;-80
2023/10/25 14:25:39;;;;;;;0.00;0.00;;;;;;;;;;4978324;28;20038;-81
2023/10/25 14:28:08;;;;;;;0.00;0.00;;;;;;;;;;4994805;28;20041;-82
2023/10/25 14:30:37;;;;;;;0.00;0.00;;;;;;;;;;4995691;28;20026;-80
2023/10/25 14:33:03;;;;;;;0.00;0.00;;;;;;;;;;4978054;28;20034;-80
2023/10/25 14:35:33;;;;;;;0.00;0.00;;;;;;;;;;4995848;28;20459;-80
2023/10/25 14:37:58;;;;;;;0.00;0.00;;;;;;;;;;4973851;28;20395;-79
2023/10/25 14:40:23;;;;;;;0.00;0.00;;;;;;;;;;4995517;28;20125;-80
2023/10/25 14:42:49;;;;;;;0.00;0.00;;;;;;;;;;4992791;28;20101;-80
2023/10/25 14:45:16;;;;;;;0.00;0.00;;;;;;;;;;4994995;28;20049;-80
2023/10/25 14:47:41;;;;;;;0.00;0.00;;;;;;;;;;4977951;28;20038;-78
2023/10/25 14:50:07;;;;;;;0.00;0.00;;;;;;;;;;4995483;28;20038;-79
2023/10/25 14:52:32;;;;;;;0.00;0.00;;;;;;;;;;4978072;28;20121;-80
2023/10/25 14:54:58;;;;;;;0.00;0.00;;;;;;;;;;4995166;28;20109;-80
2023/10/25 14:57:23;;;;;;;0.00;0.00;;;;;;;;;;4993758;28;20034;-80
2023/10/25 14:59:49;;;;;;;0.00;0.00;;;;;;;;;;4977248;28;20022;-80
2023/10/25 15:02:14;;;;;;;0.00;0.00;;;;;;;;;;4994487;28;20037;-80
2023/10/25 15:04:40;;;;;;;0.00;0.00;;;;;;;;;;4995283;28;20038;-80
2023/10/25 15:07:05;;;;;;;0.00;0.00;;;;;;;;;;4961865;28;20417;-81
2023/10/25 15:09:31;;;;;;;0.00;0.00;;;;;;;;;;4994911;28;20117;-81
2023/10/25 15:11:56;;;;;;;0.00;0.00;;;;;;;;;;4995031;28;20031;-79
2023/10/25 15:14:22;;;;;;;0.00;0.00;;;;;;;;;;4994964;28;20467;-80
2023/10/25 15:16:48;;;;;;;0.00;0.00;;;;;;;;;;4994914;28;20042;-80
2023/10/25 15:19:13;;;;;;;0.00;0.00;;;;;;;;;;5000814;28;20022;-78
2023/10/25 15:21:38;;;;;;;0.00;0.00;;;;;;;;;;5014810;28;20124;-80
2023/10/25 15:24:04;;;;;;;0.00;0.00;;;;;;;;;;4997156;28;20108;-80
2023/10/25 15:26:32;;;;;;;0.00;0.00;;;;;;;;;;4963519;28;20130;-83
2023/10/25 15:29:00;;;;;;;0.00;0.00;;;;;;;;;;4965426;28;20368;-81
2023/10/25 15:31:26;;;;;;;0.00;0.00;;;;;;;;;;4994899;28;20030;-81
2023/10/25 15:33:52;;;;;;;0.00;0.00;;;;;;;;;;4994391;28;20077;-82
2023/10/25 15:36:18;;;;;;;0.00;0.00;;;;;;;;;;4994380;28;20077;-79
2023/10/25 15:38:44;;;;;;;0.00;0.00;;;;;;;;;;4994851;28;20426;-82
2023/10/25 15:41:24;;;;;;;0.00;0.00;;;;;;;;;;4990122;28;20180;-83
2023/10/25 15:43:50;;;;;;;0.00;0.00;;;;;;;;;;4996759;28;20045;-81
2023/10/25 15:46:24;;;;;;;0.00;0.00;;;;;;;;;;5010381;28;20357;-80
2023/10/25 15:48:50;;;;;;;0.00;0.00;;;;;;;;;;4997200;28;20033;-80
2023/10/25 15:51:15;;;;;;;0.00;0.00;;;;;;;;;;4980986;28;20409;-81
2023/10/25 15:53:44;;;;;;;0.00;0.00;;;;;;;;;;4996758;28;20073;-81
2023/10/25 15:56:10;;;;;;;0.00;0.00;;;;;;;;;;4996865;28;20092;-81
2023/10/25 15:58:38;;;;;;;0.00;0.00;;;;;;;;;;5014678;28;20042;-81
2023/10/25 16:01:11;;;;;;;0.00;0.00;;;;;;;;;;5014670;28;20033;-81
2023/10/25 16:03:37;;;;;;;0.00;0.00;;;;;;;;;;4997348;28;20418;-81
2023/10/25 16:06:04;;;;;;;0.00;0.00;;;;;;;;;;4996886;28;20045;-80
2023/10/25 16:08:29;;;;;;;0.00;0.00;;;;;;;;;;4996975;28;20391;-81
2023/10/25 16:10:56;;;;;;;0.00;0.00;;;;;;;;;;5014393;28;20049;-81
2023/10/25 16:13:21;;;;;;;0.00;0.00;;;;;;;;;;4996959;28;20041;-80
2023/10/25 16:15:47;;;;;;;0.00;0.00;;;;;;;;;;5014221;28;20034;-80
2023/10/25 16:18:12;;;;;;;0.00;0.00;;;;;;;;;;4996721;28;20372;-81
2023/10/25 16:20:41;;;;;;;0.10;0.00;;;;;;;;;;4979890;28;20096;-81
2023/10/25 16:23:06;;;;;;;0.00;0.00;;;;;;;;;;4994615;28;20065;-81
2023/10/25 16:25:35;;;;;;;0.00;0.00;;;;;;;;;;4961067;28;20065;-80
2023/10/25 16:28:01;;;;;;;0.00;0.00;;;;;;;;;;4976898;28;20085;-79
2023/10/25 16:30:27;;;;;;;0.00;0.00;;;;;;;;;;4976681;28;20026;-80
2023/10/25 16:32:53;;;;;;;0.00;0.00;;;;;;;;;;4993979;28;20057;-81
2023/10/25 16:35:18;;;;;;;0.00;0.00;;;;;;;;;;4961381;28;20034;-81
2023/10/25 16:37:48;;;;;;;0.00;0.00;;;;;;;;;;4995422;28;20092;-79
2023/10/25 16:40:14;;;;;;;0.00;0.00;;;;;;;;;;4947555;28;20058;-79
2023/10/25 16:42:40;;;;;;;0.00;0.00;;;;;;;;;;4994501;28;20049;-80
2023/10/25 16:45:06;;;;;;;0.00;0.00;;;;;;;;;;4977668;28;20030;-80
2023/10/25 16:47:31;;;;;;;0.00;0.00;;;;;;;;;;4992150;28;20030;-80